Time;durP1;ratioP1;P1;durP2;ratioP2;P2;SDS_P1;SDS_P2;PMS_P1;PMS_P2;Temp;Humidity;BMP_temperature;BMP_pressure;BME280_temperature;BME280_humidity;BME280_pressure;Samples;Min_cycle;Max_cycle;Signal;HPM_P1;HPM_P2
2022/09/02 00:01:50;;;;;;;;;35.00;33.00;;;;;21.29;39.51;99191.94;6242899;27;97272;-56
2022/09/02 00:04:54;;;;;;;;;39.00;35.40;;;;;21.23;39.21;99187.59;6245154;27;98973;-57
2022/09/02 00:07:58;;;;;;;;;37.40;34.40;;;;;21.19;39.67;99184.59;6239319;27;97232;-55
2022/09/02 00:11:02;;;;;;;;;44.00;38.00;;;;;20.97;39.62;99156.72;6241051;27;96594;-56
2022/09/02 00:14:09;;;;;;;;;39.80;35.40;;;;;21.11;39.79;99193.41;6257222;27;96694;-55
2022/09/02 00:17:13;;;;;;;;;35.20;32.80;;;;;21.06;40.09;99191.47;6251805;27;97491;-58
2022/09/02 00:20:18;;;;;;;;;41.60;36.60;;;;;21.01;40.32;99196.97;6247275;27;96821;-58
2022/09/02 00:23:21;;;;;;;;;44.00;38.50;;;;;;;;6254776;27;96630;-58
2022/09/02 00:26:28;;;;;;;;;33.50;31.75;;;;;20.90;40.29;99191.84;6254303;27;96884;-55
2022/09/02 00:29:31;;;;;;;;;39.60;35.60;;;;;20.87;39.96;99192.41;6247206;27;97105;-55
2022/09/02 00:32:35;;;;;;;;;39.00;35.40;;;;;20.81;40.01;99179.84;6243810;27;96978;-58
2022/09/02 00:35:39;;;;;;;;;41.75;36.50;;;;;20.77;40.22;99188.59;6246111;27;97052;-55
2022/09/02 00:38:43;;;;;;;;;35.20;33.00;;;;;20.75;40.10;99187.25;6237375;27;97071;-58
2022/09/02 00:41:47;;;;;;;;;40.80;36.20;;;;;20.72;40.37;99182.34;6259181;27;96683;-57
2022/09/02 00:44:51;;;;;;;;;31.50;30.75;;;;;20.66;40.47;99178.81;6249444;27;97807;-56
2022/09/02 00:47:54;;;;;;;;;36.60;33.00;;;;;20.62;40.92;99174.97;6246223;27;97468;-56
2022/09/02 00:51:02;;;;;;;;;28.33;28.33;;;;;20.59;40.86;99169.25;6245907;27;96998;-55
2022/09/02 00:54:10;;;;;;;;;43.80;38.40;;;;;20.53;40.89;99173.91;6243978;27;97541;-55
2022/09/02 00:57:18;;;;;;;;;37.75;34.50;;;;;20.52;40.48;99175.03;6242892;27;97396;-58
2022/09/02 01:00:25;;;;;;;;;36.20;33.60;;;;;20.50;41.04;99169.00;6236072;27;97344;-55
2022/09/02 01:03:34;;;;;;;;;41.60;36.60;;;;;20.44;41.55;99169.28;6238584;27;97771;-57
2022/09/02 01:06:39;;;;;;;;;33.60;32.00;;;;;20.38;41.32;99171.22;6249067;27;97567;-55
2022/09/02 01:09:43;;;;;;;;;37.00;33.75;;;;;20.33;41.30;99174.78;6245925;27;97438;-58
2022/09/02 01:12:48;;;;;;;;;33.40;32.00;;;;;20.29;41.45;99165.47;6244578;27;97719;-57
2022/09/02 01:15:54;;;;;;;;;33.20;31.80;;;;;20.20;41.39;99163.59;6249700;27;96699;-55
2022/09/02 01:19:01;;;;;;;;;40.40;36.00;;;;;20.23;41.32;99166.56;6249850;27;97240;-57
2022/09/02 01:22:16;;;;;;;;;38.60;35.00;;;;;20.20;41.52;99160.84;6241672;27;97933;-57
2022/09/02 01:25:22;;;;;;;;;40.00;36.00;;;;;20.19;41.27;99164.66;6246676;27;97712;-55
2022/09/02 01:28:26;;;;;;;;;41.25;36.00;;;;;20.16;41.70;99163.31;6260446;27;96631;-55
2022/09/02 01:31:29;;;;;;;;;36.25;33.00;;;;;20.14;41.44;99165.50;6251910;27;98101;-55
2022/09/02 01:34:33;;;;;;;;;29.00;29.00;;;;;20.11;41.47;99168.81;6251439;27;97469;-57
2022/09/02 01:37:38;;;;;;;;;35.40;33.00;;;;;20.09;41.53;99173.72;6254800;27;97525;-55
2022/09/02 01:40:42;;;;;;;;;36.25;33.25;;;;;20.05;41.44;99171.81;6255121;27;97472;-57
2022/09/02 01:43:45;;;;;;;;;35.00;33.00;;;;;20.06;41.11;99177.03;6239260;27;97405;-55
2022/09/02 01:46:48;;;;;;;;;33.40;32.00;;;;;20.03;41.21;99169.38;6240017;27;97371;-56
2022/09/02 01:49:53;;;;;;;;;25.40;25.20;;;;;20.00;41.51;99169.91;6237108;27;97544;-55
2022/09/02 01:53:02;;;;;;;;;27.00;27.00;;;;;19.99;41.42;99181.94;6243039;27;98137;-55
2022/09/02 01:56:08;;;;;;;;;37.60;33.80;;;;;19.96;41.41;99177.03;6250009;27;97093;-55
2022/09/02 01:59:16;;;;;;;;;37.80;34.20;;;;;19.96;41.74;99170.75;6237712;27;97181;-57
2022/09/02 02:02:20;;;;;;;;;37.00;34.00;;;;;19.86;41.57;99160.63;6241525;27;97198;-57
2022/09/02 02:05:23;;;;;;;;;34.20;32.00;;;;;19.94;41.27;99170.22;6236436;27;97326;-58
2022/09/02 02:08:29;;;;;;;;;36.60;33.40;;;;;19.90;41.28;99172.66;6262953;27;97550;-57
2022/09/02 02:11:34;;;;;;;;;37.00;34.00;;;;;19.88;41.67;99172.13;6258891;27;96688;-56
2022/09/02 02:14:38;;;;;;;;;35.40;32.80;;;;;19.88;41.52;99169.41;6260857;27;96841;-57
2022/09/02 02:17:42;;;;;;;;;40.60;36.00;;;;;19.85;41.32;99176.22;6259755;27;97918;-56
2022/09/02 02:20:45;;;;;;;;;37.40;34.00;;;;;19.84;41.67;99174.56;6238395;27;97292;-57
2022/09/02 02:23:50;;;;;;;;;37.00;33.60;;;;;19.82;41.43;99170.50;6246039;27;97225;-57
2022/09/02 02:26:53;;;;;;;;;39.20;35.00;;;;;19.79;41.82;99162.84;6236520;27;96511;-57
2022/09/02 02:29:58;;;;;;;;;34.80;32.40;;;;;19.77;41.52;99168.59;6257251;27;97786;-54
2022/09/02 02:33:03;;;;;;;;;41.00;36.00;;;;;19.77;41.35;99163.13;6248937;27;97594;-57
2022/09/02 02:36:07;;;;;;;;;39.20;35.40;;;;;19.75;41.37;99159.81;6245644;27;97341;-57
2022/09/02 02:39:13;;;;;;;;;24.80;24.80;;;;;19.75;41.38;99157.09;6255533;27;97387;-57
2022/09/02 02:42:16;;;;;;;;;38.40;34.80;;;;;19.73;41.57;99158.47;6255105;27;96983;-57
2022/09/02 02:45:20;;;;;;;;;31.80;30.60;;;;;19.74;41.71;99155.44;6250982;27;96596;-57
2022/09/02 02:48:24;;;;;;;;;39.20;35.00;;;;;19.72;41.62;99154.91;6238567;27;96887;-57
2022/09/02 02:51:28;;;;;;;;;38.40;34.80;;;;;19.71;41.52;99157.91;6251787;27;97979;-56
2022/09/02 02:54:33;;;;;;;;;37.60;34.60;;;;;19.70;41.59;99154.34;6236337;27;97090;-55
2022/09/02 02:57:42;;;;;;;;;37.75;34.75;;;;;19.68;41.52;99148.34;6251497;27;97483;-55
2022/09/02 03:00:46;;;;;;;;;46.60;40.00;;;;;19.67;41.70;99149.44;6241136;27;97421;-57
2022/09/02 03:03:51;;;;;;;;;37.80;34.20;;;;;19.65;41.79;99153.53;6245877;27;97223;-57
2022/09/02 03:06:56;;;;;;;;;44.20;38.60;;;;;19.63;41.39;99153.81;6252369;27;97532;-57
2022/09/02 03:10:02;;;;;;;;;32.60;31.40;;;;;19.61;41.51;99149.69;6263364;27;97536;-57
2022/09/02 03:13:08;;;;;;;;;34.50;31.75;;;;;19.61;41.50;99146.97;6245654;27;96772;-57
2022/09/02 03:16:12;;;;;;;;;39.80;35.60;;;;;19.60;41.43;99150.78;6244423;27;96914;-57
2022/09/02 03:19:16;;;;;;;;;31.50;30.50;;;;;19.57;41.59;99157.66;6239448;27;97507;-57
2022/09/02 03:22:20;;;;;;;;;36.80;33.80;;;;;19.55;41.81;99153.56;6256993;27;96573;-57
2022/09/02 03:25:27;;;;;;;;;39.00;35.00;;;;;19.56;41.93;99155.19;6242522;27;97464;-55
2022/09/02 03:28:40;;;;;;;;;39.60;35.60;;;;;19.55;42.08;99156.28;6239039;27;97476;-57
2022/09/02 03:31:43;;;;;;;;;26.20;26.20;;;;;19.58;42.18;99153.81;6238601;27;97691;-55
2022/09/02 03:34:47;;;;;;;;;41.80;36.60;;;;;19.59;42.14;99151.91;6240783;27;97475;-57
2022/09/02 03:37:53;;;;;;;;;41.40;36.00;;;;;19.53;42.24;99148.34;6244586;27;97072;-57
2022/09/02 03:41:01;;;;;;;;;38.00;35.00;;;;;19.60;42.22;99153.53;6276953;27;96987;-55
2022/09/02 03:44:04;;;;;;;;;43.50;38.00;;;;;19.45;42.50;99140.69;6254675;27;96916;-57
2022/09/02 03:47:08;;;;;;;;;41.00;36.25;;;;;19.59;42.21;99166.41;6251041;27;97233;-57
2022/09/02 03:50:12;;;;;;;;;50.17;42.83;;;;;19.59;41.86;99160.94;6260923;27;96976;-57
2022/09/02 03:53:15;;;;;;;;;33.60;32.00;;;;;19.60;42.27;99162.56;6240653;27;97674;-55
2022/09/02 03:56:28;;;;;;;;;33.40;32.00;;;;;19.62;41.86;99165.03;6258351;27;97002;-54
2022/09/02 03:59:32;;;;;;;;;40.00;35.00;;;;;19.56;42.05;99164.19;6237285;27;99162;-55
2022/09/02 04:02:35;;;;;;;;;45.40;38.80;;;;;19.60;42.05;99169.94;6243512;27;97637;-57
2022/09/02 04:05:39;;;;;;;;;48.00;41.00;;;;;19.59;41.77;99171.88;6238865;27;97142;-55
2022/09/02 04:08:43;;;;;;;;;49.33;42.00;;;;;19.55;41.97;99170.75;6240431;27;96893;-57
2022/09/02 04:11:49;;;;;;;;;40.40;35.60;;;;;19.56;42.02;99174.31;6254148;27;96919;-57
2022/09/02 04:14:52;;;;;;;;;45.00;38.20;;;;;19.56;41.81;99171.59;6242267;27;98376;-58
2022/09/02 04:18:00;;;;;;;;;39.00;35.00;;;;;19.57;42.00;99178.69;6244291;27;96607;-55
2022/09/02 04:21:04;;;;;;;;;40.83;36.00;;;;;19.56;41.96;99177.06;6255057;27;97435;-55
2022/09/02 04:24:11;;;;;;;;;50.50;43.17;;;;;19.44;42.09;99161.75;6257241;27;97360;-55
2022/09/02 04:27:21;;;;;;;;;52.83;44.83;;;;;19.58;42.66;99183.91;6248445;27;96687;-57
2022/09/02 04:30:24;;;;;;;;;48.40;41.40;;;;;19.63;42.68;99192.13;6246283;27;96578;-55
2022/09/02 04:33:28;;;;;;;;;56.20;46.60;;;;;19.69;42.40;99191.03;6251229;27;98120;-57
2022/09/02 04:36:32;;;;;;;;;44.75;39.00;;;;;19.78;42.84;99196.75;6259606;27;97350;-55
2022/09/02 04:39:40;;;;;;;;;47.40;40.60;;;;;19.81;42.73;99188.00;6245265;27;98098;-54
2022/09/02 04:42:46;;;;;;;;;55.40;46.60;;;;;19.93;42.10;99191.28;6240843;27;97674;-57
2022/09/02 04:45:49;;;;;;;;;53.17;45.00;;;;;20.06;42.52;99192.63;6243695;27;97534;-54
2022/09/02 04:48:54;;;;;;;;;36.00;33.00;;;;;20.10;42.27;99189.06;6238070;27;98871;-56
2022/09/02 04:51:59;;;;;;;;;46.40;39.60;;;;;20.17;42.05;99194.25;6247430;27;96815;-55
2022/09/02 04:55:05;;;;;;;;;44.20;37.40;;;;;20.24;42.07;99183.81;6238794;27;97423;-55
2022/09/02 04:58:10;;;;;;;;;33.33;31.67;;;;;20.38;42.12;99195.88;6241083;27;96941;-56
2022/09/02 05:01:19;;;;;;;;;47.00;40.75;;;;;20.48;41.69;99197.75;6242667;27;97420;-54
2022/09/02 05:04:24;;;;;;;;;32.20;30.60;;;;;20.60;41.72;99193.63;6250973;27;97231;-60
2022/09/02 05:07:28;;;;;;;;;48.60;41.80;;;;;20.70;41.46;99198.25;6245166;27;97370;-56
2022/09/02 05:10:33;;;;;;;;;40.20;35.80;;;;;20.80;41.03;99191.91;6254375;27;97109;-56
2022/09/02 05:13:38;;;;;;;;;36.20;33.60;;;;;20.87;40.88;99193.22;6238240;27;97555;-58
2022/09/02 05:16:44;;;;;;;;;42.80;37.40;;;;;20.84;40.78;99187.50;6248133;27;97255;-56
2022/09/02 05:19:50;;;;;;;;;33.50;32.25;;;;;21.04;40.53;99195.63;6248524;27;97366;-55
2022/09/02 05:22:54;;;;;;;;;55.60;46.60;;;;;21.09;40.29;99195.59;6247187;27;97590;-57
2022/09/02 05:25:58;;;;;;;;;38.60;35.00;;;;;21.09;40.38;99192.84;6245379;27;97412;-59
2022/09/02 05:29:05;;;;;;;;;37.60;34.20;;;;;21.18;40.55;99192.00;6246678;27;97934;-56
2022/09/02 05:32:09;;;;;;;;;37.33;34.17;;;;;21.31;40.16;99196.03;6249865;27;97121;-56
2022/09/02 05:35:14;;;;;;;;;41.00;36.00;;;;;21.45;39.88;99196.22;6252066;27;97428;-55
2022/09/02 05:38:19;;;;;;;;;46.33;40.00;;;;;21.58;39.74;99188.16;6250921;27;98023;-57
2022/09/02 05:41:24;;;;;;;;;47.75;40.75;;;;;21.59;38.65;99194.47;6260975;27;97118;-55
2022/09/02 05:44:32;;;;;;;;;29.80;29.40;;;;;21.41;38.83;99170.44;6243442;27;98306;-55
2022/09/02 05:47:37;;;;;;;;;58.00;48.50;;;;;21.52;38.84;99191.22;6260423;27;97379;-57
2022/09/02 05:50:41;;;;;;;;;41.17;35.83;;;;;21.66;39.01;99196.88;6253508;27;97698;-56
2022/09/02 05:53:52;;;;;;;;;66.33;55.17;;;;;21.66;38.73;99200.44;6218687;28;97157;-59
2022/09/02 05:56:58;;;;;;;;;40.20;35.80;;;;;21.66;38.52;99189.47;6235749;28;97388;-55
2022/09/02 06:00:06;;;;;;;;;42.00;36.33;;;;;21.70;38.95;99192.47;6218662;28;99008;-55
2022/09/02 06:03:17;;;;;;;;;42.60;37.00;;;;;21.57;38.79;99159.09;6237329;28;97818;-57
2022/09/02 06:06:23;;;;;;;;;39.20;35.40;;;;;21.93;38.61;99192.56;6253197;27;96669;-58
2022/09/02 06:09:26;;;;;;;;;46.40;40.00;;;;;22.09;37.60;99186.94;6253627;27;96921;-56
2022/09/02 06:12:32;;;;;;;;;50.17;42.83;;;;;22.21;37.84;99193.66;6261771;27;96929;-57
2022/09/02 06:15:41;;;;;;;;;26.40;26.00;;;;;22.33;37.71;99196.81;6262296;27;96543;-58
2022/09/02 06:18:44;;;;;;;;;39.50;35.00;;;;;22.42;37.12;99184.09;6251890;27;97441;-54
2022/09/02 06:21:48;;;;;;;;;24.40;24.40;;;;;22.55;37.20;99188.06;6262497;27;96526;-57
2022/09/02 06:24:52;;;;;;;;;51.67;44.17;;;;;22.62;37.04;99195.97;6242372;27;97092;-55
2022/09/02 06:27:59;;;;;;;;;42.80;36.80;;;;;22.68;36.88;99200.28;6253280;27;97058;-59
2022/09/02 06:31:13;;;;;;;;;44.20;38.20;;;;;22.72;37.19;99195.88;6246804;27;97344;-57
2022/09/02 06:34:19;;;;;;;;;34.40;32.40;;;;;22.88;37.09;99195.38;6259123;27;97041;-58
2022/09/02 06:37:24;;;;;;;;;26.20;25.20;;;;;23.12;36.99;99197.25;6258967;27;96721;-56
2022/09/02 06:40:28;;;;;;;;;15.80;15.80;;;;;23.29;36.14;99214.09;6254022;27;97033;-56
2022/09/02 06:43:32;;;;;;;;;26.25;25.25;;;;;23.48;36.10;99208.63;6278123;27;97740;-58
2022/09/02 06:46:59;;;;;;;;;25.40;24.40;;;;;23.58;35.54;99216.72;6260569;27;96488;-55
2022/09/02 06:50:04;;;;;;;;;47.33;40.50;;;;;23.60;35.30;99212.53;6277763;27;96955;-57
2022/09/02 06:53:08;;;;;;;;;37.00;34.00;;;;;23.72;36.17;99212.91;6261605;27;96732;-56
2022/09/02 06:56:13;;;;;;;;;52.00;43.80;;;;;23.93;35.71;99212.56;6242982;27;96895;-55
2022/09/02 06:59:18;;;;;;;;;43.00;37.25;;;;;24.07;35.53;99213.44;6260101;27;97516;-58
2022/09/02 07:02:26;;;;;;;;;48.50;41.50;;;;;24.18;35.10;99223.19;6260488;27;97019;-53
2022/09/02 07:05:28;;;;;;;;;48.25;41.50;;;;;24.30;34.70;99214.41;6257346;27;96986;-57
2022/09/02 07:08:32;;;;;;;;;42.20;37.00;;;;;24.40;34.59;99217.00;6247873;27;96702;-58
2022/09/02 07:11:38;;;;;;;;;31.60;30.00;;;;;24.54;34.83;99213.13;6256913;27;97717;-58
2022/09/02 07:14:43;;;;;;;;;39.60;35.60;;;;;24.70;34.57;99216.41;6241299;27;97212;-58
2022/09/02 07:17:50;;;;;;;;;22.00;21.40;;;;;24.87;34.05;99213.91;6251875;27;97175;-56
2022/09/02 07:21:01;;;;;;;;;33.75;32.00;;;;;25.02;33.97;99210.78;6236669;28;97462;-57
2022/09/02 07:24:09;;;;;;;;;38.00;34.60;;;;;25.16;34.22;99212.72;6257298;27;97155;-57
2022/09/02 07:27:13;;;;;;;;;32.40;30.80;;;;;25.32;34.44;99201.03;6244554;27;96694;-57
2022/09/02 07:30:18;;;;;;;;;51.40;43.80;;;;;25.56;33.18;99217.34;6244026;27;97210;-56
2022/09/02 07:33:25;;;;;;;;;36.00;33.20;;;;;25.73;32.98;99209.22;6250055;27;97333;-59
2022/09/02 07:36:30;;;;;;;;;22.40;21.40;;;;;25.82;32.25;99220.31;6253267;27;97164;-59
2022/09/02 07:39:34;;;;;;;;;28.20;26.40;;;;;26.00;32.75;99224.03;6251274;27;96924;-57
2022/09/02 07:42:38;;;;;;;;;42.60;37.60;;;;;26.11;31.78;99220.69;6242129;27;97583;-58
2022/09/02 07:45:43;;;;;;;;;27.60;26.40;;;;;26.25;31.63;99223.38;6240120;27;96575;-58
2022/09/02 07:48:49;;;;;;;;;50.40;43.20;;;;;26.37;31.80;99228.34;6259917;27;97331;-58
2022/09/02 07:51:53;;;;;;;;;37.00;33.00;;;;;26.53;31.72;99215.75;6253813;27;97414;-59
2022/09/02 07:54:57;;;;;;;;;48.00;41.00;;;;;26.64;31.16;99223.41;6264062;27;97429;-58
2022/09/02 07:58:01;;;;;;;;;40.80;35.80;;;;;26.67;31.38;99222.78;6254977;27;97027;-60
2022/09/02 08:01:05;;;;;;;;;41.40;36.20;;;;;26.71;30.79;99218.25;6239103;28;96903;-57
2022/09/02 08:04:12;;;;;;;;;40.25;36.00;;;;;26.72;31.09;99216.31;6238308;27;97025;-52
2022/09/02 08:07:22;;;;;;;;;18.60;18.20;;;;;26.83;31.01;99214.06;6250845;27;96639;-57
2022/09/02 08:10:28;;;;;;;;;31.60;30.20;;;;;26.97;31.01;99212.84;6250896;27;96982;-59
2022/09/02 08:13:31;;;;;;;;;42.20;36.40;;;;;27.01;30.54;99202.75;6250057;27;96664;-59
2022/09/02 08:16:35;;;;;;;;;33.80;32.40;;;;;27.05;30.44;99197.38;6243837;27;96628;-58
2022/09/02 08:19:40;;;;;;;;;41.40;36.40;;;;;27.28;30.74;99209.94;6242815;27;97407;-57
2022/09/02 08:22:44;;;;;;;;;42.75;36.75;;;;;27.46;30.75;99208.03;6245439;27;97531;-58
2022/09/02 08:26:03;;;;;;;;;54.33;45.67;;;;;27.55;29.49;99200.56;6264861;27;97160;-59
2022/09/02 08:29:08;;;;;;;;;33.25;32.00;;;;;27.72;30.44;99202.50;6254570;27;96960;-55
2022/09/02 08:32:12;;;;;;;;;36.00;32.80;;;;;27.96;29.36;99205.56;6248688;27;97208;-56
2022/09/02 08:35:17;;;;;;;;;25.00;25.00;;;;;28.08;29.72;99210.44;6238236;28;97076;-58
2022/09/02 08:38:21;;;;;;;;;42.20;37.20;;;;;28.27;28.90;99208.16;6237346;28;97168;-55
2022/09/02 08:41:28;;;;;;;;;33.00;32.00;;;;;28.35;29.66;99210.88;6245494;27;96595;-53
2022/09/02 08:44:34;;;;;;;;;36.60;33.00;;;;;28.58;28.97;99199.56;6251533;27;97062;-54
2022/09/02 08:47:42;;;;;;;;;45.80;39.80;;;;;28.82;28.05;99195.06;6237861;27;97507;-55
2022/09/02 08:50:50;;;;;;;;;25.50;25.25;;;;;28.92;27.20;99195.84;6237388;27;97060;-59
2022/09/02 08:54:00;;;;;;;;;42.00;36.60;;;;;28.85;27.50;99191.63;6238491;27;97449;-59
2022/09/02 08:57:03;;;;;;;;;25.75;24.75;;;;;28.82;28.11;99188.72;6239991;27;97119;-61
2022/09/02 09:00:08;;;;;;;;;46.00;40.00;;;;;28.98;28.89;99191.72;6246009;27;96453;-58
2022/09/02 09:03:23;;;;;;;;;40.40;35.80;;;;;29.14;26.92;99179.69;6260846;27;97405;-59
2022/09/02 09:06:39;;;;;;;;;34.40;32.60;;;;;29.34;26.89;99180.88;6248679;27;96768;-57
2022/09/02 09:10:00;;;;;;;;;33.75;31.75;;;;;29.50;25.87;99183.88;6239038;27;97334;-58
2022/09/02 09:13:34;;;;;;;;;34.80;32.40;;;;;29.60;26.44;99181.50;6238999;28;96889;-64
2022/09/02 09:16:52;;;;;;;;;40.60;35.60;;;;;29.77;26.69;99174.13;6254641;27;97218;-59
2022/09/02 09:19:59;;;;;;;;;39.00;35.20;;;;;29.91;25.29;99177.47;6238546;28;98219;-58
2022/09/02 09:23:14;;;;;;;;;28.25;27.25;;;;;29.97;24.96;99174.13;6238828;28;96983;-58
2022/09/02 09:26:27;;;;;;;;;30.40;30.00;;;;;30.03;25.06;99172.75;6240308;27;97594;-58
2022/09/02 09:29:32;;;;;;;;;26.60;26.60;;;;;30.12;24.27;99176.25;6240101;27;97663;-59
2022/09/02 09:32:40;;;;;;;;;28.40;28.40;;;;;30.14;24.52;99175.94;6246675;27;96750;-63
2022/09/02 09:35:49;;;;;;;;;25.60;25.60;;;;;29.84;23.63;99124.38;6257197;27;96508;-63
2022/09/02 09:38:54;;;;;;;;;17.25;17.25;;;;;30.21;24.57;99173.38;6241289;27;97066;-64
2022/09/02 09:41:59;;;;;;;;;41.20;36.40;;;;;30.45;24.17;99173.41;6246825;27;97394;-58
2022/09/02 09:45:18;;;;;;;;;23.00;22.75;;;;;30.68;24.04;99171.03;6236711;27;97702;-63
2022/09/02 09:48:27;;;;;;;;;27.25;27.25;;;;;30.79;23.04;99169.41;6263237;27;97440;-60
2022/09/02 09:51:31;;;;;;;;;35.67;32.67;;;;;30.75;22.89;99157.34;6263867;27;96815;-58
2022/09/02 09:55:11;;;;;;;;;46.40;40.00;;;;;30.58;23.23;99157.59;6255259;27;97656;-57
2022/09/02 09:58:14;;;;;;;;;40.25;35.50;;;;;30.45;23.66;99153.13;6260959;27;97404;-64
2022/09/02 10:01:20;;;;;;;;;26.00;26.00;;;;;30.30;23.34;99154.59;6254880;27;96915;-61
2022/09/02 10:04:30;;;;;;;;;23.00;23.00;;;;;30.30;23.11;99149.06;6237111;28;97980;-58
2022/09/02 10:07:54;;;;;;;;;40.00;35.75;;;;;30.37;23.72;99151.28;6260286;27;97418;-56
2022/09/02 10:11:04;;;;;;;;;27.20;27.20;;;;;30.50;23.62;99145.41;6236442;27;97501;-60
2022/09/02 10:14:11;;;;;;;;;24.00;24.00;;;;;30.46;22.71;99147.25;6235837;27;97559;-64
2022/09/02 10:17:39;;;;;;;;;34.00;32.00;;;;;30.42;22.66;99151.03;6235620;27;96658;-63
2022/09/02 10:20:56;;;;;;;;;32.00;31.00;;;;;30.04;22.70;99143.81;6240101;27;96519;-57
2022/09/02 10:24:37;;;;;;;;;22.67;22.67;;;;;29.88;22.63;99141.97;6260761;27;96978;-57
2022/09/02 10:27:54;;;;;;;;;41.40;36.40;;;;;29.78;23.26;99140.44;6244211;27;96923;-57
2022/09/02 10:31:08;;;;;;;;;38.75;34.50;;;;;29.67;22.95;99139.25;6235806;27;97119;-59
2022/09/02 10:34:23;;;;;;;;;42.40;37.20;;;;;29.58;24.00;99139.34;6247049;27;96778;-55
2022/09/02 10:37:34;;;;;;;;;41.00;36.50;;;;;29.64;23.59;99137.16;6237979;27;97153;-54
2022/09/02 10:40:44;;;;;;;;;28.20;28.00;;;;;29.60;23.49;99125.09;6235286;28;96594;-58
2022/09/02 10:44:08;;;;;;;;;23.00;23.00;;;;;29.52;23.09;99121.25;6238358;27;96775;-55
2022/09/02 10:47:23;;;;;;;;;20.20;20.20;;;;;29.59;23.44;99117.91;6242739;27;97177;-59
2022/09/02 10:50:39;;;;;;;;;32.00;31.00;;;;;29.73;22.92;99120.41;6257981;27;97064;-59
2022/09/02 10:54:08;;;;;;;;;18.00;18.00;;;;;29.94;22.77;99121.19;6238735;27;97370;-57
2022/09/02 10:57:18;;;;;;;;;24.40;24.20;;;;;30.02;22.58;99123.88;6252524;27;97285;-60
2022/09/02 11:00:23;;;;;;;;;19.75;19.75;;;;;30.13;22.64;99124.25;6254240;27;97448;-52
2022/09/02 11:03:34;;;;;;;;;32.00;31.00;;;;;30.21;21.92;99125.28;6252037;27;96979;-56
2022/09/02 11:06:40;;;;;;;;;28.00;28.00;;;;;30.34;22.47;99124.97;6256403;27;97890;-59
2022/09/02 11:10:12;;;;;;;;;29.75;29.75;;;;;30.40;22.32;99114.41;6256608;27;97263;-59
2022/09/02 11:13:23;;;;;;;;;38.40;34.60;;;;;30.28;21.67;99084.63;6258070;27;97415;-60
2022/09/02 11:16:33;;;;;;;;;39.20;35.60;;;;;30.48;21.33;99117.13;6257480;27;97485;-59
2022/09/02 11:19:43;;;;;;;;;19.40;19.40;;;;;30.43;21.29;99122.06;6249411;27;97102;-60
2022/09/02 11:22:55;;;;;;;;;41.20;36.60;;;;;30.32;21.25;99118.94;6243736;27;97214;-56
2022/09/02 11:26:04;;;;;;;;;35.60;33.00;;;;;30.23;21.25;99114.63;6242939;27;98219;-58
2022/09/02 11:29:14;;;;;;;;;44.40;38.60;;;;;30.21;20.56;99108.59;6243393;27;97051;-60
2022/09/02 11:32:26;;;;;;;;;25.00;25.00;;;;;30.38;21.65;99102.81;6247405;27;97046;-59
2022/09/02 11:35:37;;;;;;;;;24.50;24.50;;;;;30.57;22.29;99099.50;6249216;27;97655;-57
2022/09/02 11:38:45;;;;;;;;;21.25;21.25;;;;;30.79;21.33;99099.81;6247909;27;97762;-62
2022/09/02 11:42:03;;;;;;;;;21.80;21.80;;;;;30.96;21.44;99088.41;6250081;27;97415;-54
2022/09/02 11:45:33;;;;;;;;;11.50;11.50;;;;;31.15;20.71;99087.81;6249459;27;97966;-56
2022/09/02 11:48:57;;;;;;;;;12.40;12.40;;;;;31.20;20.06;99083.97;6251248;27;97001;-58
2022/09/02 11:52:06;;;;;;;;;29.60;28.40;;;;;31.23;20.39;99091.59;6249883;27;97304;-56
2022/09/02 11:55:16;;;;;;;;;24.40;24.40;;;;;31.17;20.14;99095.81;6248604;27;96533;-60
2022/09/02 11:58:34;;;;;;;;;17.75;17.75;;;;;31.12;20.22;99099.66;6250028;27;97933;-59
2022/09/02 12:01:46;;;;;;;;;31.25;30.00;;;;;31.08;20.49;99084.84;6247195;27;97577;-63
2022/09/02 12:04:52;;;;;;;;;22.20;22.00;;;;;31.17;20.27;99096.63;6253117;27;97067;-64
2022/09/02 12:08:05;;;;;;;;;24.00;23.60;;;;;31.19;20.29;99088.72;6245424;27;98783;-61
2022/09/02 12:11:11;;;;;;;;;39.60;35.00;;;;;31.16;20.39;99091.41;6251407;27;97397;-61
2022/09/02 12:15:06;;;;;;;;;26.20;26.20;;;;;31.18;20.73;99086.31;6250388;27;97510;-59
2022/09/02 12:18:14;;;;;;;;;42.20;37.20;;;;;31.09;20.36;99074.47;6245894;27;97477;-58
2022/09/02 12:21:20;;;;;;;;;36.25;33.75;;;;;30.79;20.67;99052.47;6247130;27;97373;-60
2022/09/02 12:24:25;;;;;;;;;22.20;22.20;;;;;30.83;20.83;99083.22;6250783;27;97587;-63
2022/09/02 12:27:33;;;;;;;;;28.20;28.20;;;;;30.75;20.29;99067.44;6245877;27;97067;-63
2022/09/02 12:31:17;;;;;;;;;38.25;34.50;;;;;30.68;20.32;99065.28;6248249;27;96979;-59
2022/09/02 12:34:52;;;;;;;;;25.80;25.80;;;;;30.46;20.02;99062.97;6250936;27;96863;-59
2022/09/02 12:38:16;;;;;;;;;38.40;35.00;;;;;30.31;21.23;99069.19;6250851;27;97199;-62
2022/09/02 12:41:31;;;;;;;;;33.00;32.00;;;;;30.26;21.52;99061.09;6248903;27;96893;-61
2022/09/02 12:44:43;;;;;;;;;40.25;35.75;;;;;30.28;20.74;99050.44;6245587;27;98453;-65
2022/09/02 12:47:53;;;;;;;;;36.80;33.80;;;;;30.28;21.23;99047.66;6239089;27;97929;-59
2022/09/02 12:50:58;;;;;;;;;38.20;35.00;;;;;30.24;21.67;99055.88;6236335;27;98068;-60
2022/09/02 12:54:06;;;;;;;;;34.20;32.20;;;;;30.08;20.95;99052.16;6247233;27;96943;-57
2022/09/02 12:57:11;;;;;;;;;32.80;31.80;;;;;29.99;21.63;99046.72;6239297;27;96619;-57
2022/09/02 13:00:18;;;;;;;;;35.60;33.00;;;;;29.93;21.41;99039.75;6249167;27;97945;-67
2022/09/02 13:04:04;;;;;;;;;35.60;33.00;;;;;29.84;21.05;99041.81;6256204;27;96844;-60
2022/09/02 13:07:40;;;;;;;;;29.60;29.60;;;;;29.83;21.97;99042.94;6241278;27;97856;-57
2022/09/02 13:11:31;;;;;;;;;31.00;30.00;;;;;29.62;21.14;99034.69;6247795;27;96660;-58
2022/09/02 13:14:54;;;;;;;;;36.40;33.40;;;;;29.48;22.07;99044.47;6232457;27;96844;-57
2022/09/02 13:18:30;;;;;;;;;40.50;36.00;;;;;29.52;22.84;99048.19;6240015;27;97139;-59
2022/09/02 13:21:49;;;;;;;;;23.80;23.20;;;;;29.51;21.78;99024.38;6248724;27;97025;-60
2022/09/02 13:25:40;;;;;;;;;32.00;31.00;;;;;29.45;22.00;99034.06;6248937;27;97308;-57
2022/09/02 13:29:22;;;;;;;;;31.40;30.00;;;;;29.44;22.21;99032.44;6167494;27;97020;-58
2022/09/02 13:32:28;;;;;;;;;46.50;40.00;;;;;29.30;22.44;99024.38;6259491;27;98282;-59
2022/09/02 13:35:36;;;;;;;;;27.80;27.60;;;;;29.07;22.90;99012.84;6243443;27;96912;-60
2022/09/02 13:38:39;;;;;;;;;44.80;39.00;;;;;28.98;23.10;99031.53;6243189;27;96766;-62
2022/09/02 13:41:43;;;;;;;;;24.60;24.60;;;;;28.84;23.19;99033.75;6240452;27;97840;-61
2022/09/02 13:44:48;;;;;;;;;27.60;27.60;;;;;28.68;23.15;99033.56;6244942;27;96995;-64
2022/09/02 13:47:54;;;;;;;;;32.75;31.25;;;;;28.67;24.01;99031.91;6247739;27;96688;-59
2022/09/02 13:51:01;;;;;;;;;34.50;32.50;;;;;28.67;23.89;99017.22;6249294;27;96666;-58
2022/09/02 13:54:04;;;;;;;;;34.00;32.25;;;;;28.66;23.29;99013.63;6246385;27;96886;-55
2022/09/02 13:57:27;;;;;;;;;40.40;36.00;;;;;28.69;23.83;99012.94;6244289;27;97400;-60
2022/09/02 14:00:37;;;;;;;;;50.20;43.20;;;;;28.64;22.79;99012.34;6240540;27;97009;-58
2022/09/02 14:03:47;;;;;;;;;34.50;32.50;;;;;28.61;23.59;99008.28;6245960;27;97132;-58
2022/09/02 14:06:52;;;;;;;;;28.20;28.00;;;;;28.57;23.72;99015.66;6239399;27;97191;-56
2022/09/02 14:09:57;;;;;;;;;41.60;37.00;;;;;28.53;23.76;99006.41;6235871;27;97542;-57
2022/09/02 14:13:03;;;;;;;;;41.50;36.00;;;;;28.53;23.24;99011.13;6234887;27;98057;-54
2022/09/02 14:16:32;;;;;;;;;48.40;41.40;;;;;28.48;24.17;99011.34;6234303;27;97094;-58
2022/09/02 14:19:35;;;;;;;;;30.50;30.00;;;;;28.51;24.02;99011.47;6236108;27;97530;-55
2022/09/02 14:22:38;;;;;;;;;33.00;31.50;;;;;28.47;23.47;99006.94;6236142;27;97478;-60
2022/09/02 14:25:50;;;;;;;;;31.80;30.80;;;;;28.37;23.48;99000.63;6235209;27;97454;-60
2022/09/02 14:28:54;;;;;;;;;19.60;19.60;;;;;28.29;23.50;99009.81;6235974;27;97207;-62